Bitflower — SBJE — position and weather

sailwx.info

Track history (hours):
 
Tides and Currents Weather Stations Pressure Air Temp Water Temp Dewpoint Dewpoint Depression Visibility Wind Speed Wind Dir Waves Ship Positions

Bitflower

Last reported at 2015-Apr-27 22:06 UTC. Time now 2015-Apr-28 00:33 UTC.
Position N 51°35' E 002°22'.

Length 116 m; draft 4.8 m.

Type: Ship. MMSI: 266009000.

Date/timePositionNaut miles runAvg speedWind from/ knotsBaromVisibWave heightAir tempDewpointWater temp
2015-Apr-27 22:06N 51°35' E 002°22'713.2
2015-Apr-27 21:33N 51°29' E 002°16'1312.9
2015-Apr-27 20:33N 51°17' E 002°06'1211.8
2015-Apr-27 19:32N 51°09' E 001°51'1312.8
2015-Apr-27 18:32N 51°01' E 001°36'1212.1
2015-Apr-27 17:32N 50°51' E 001°25'28310.9
2015-Apr-26 15:33N 48°43' W 005°06'28810.9
2015-Apr-25 13:17N 44°20' W 002°17'911.9
2015-Apr-25 12:33N 44°12' W 002°11'1212.1
2015-Apr-25 11:33N 44°02' W 002°03'1212.1
2015-Apr-25 10:33N 43°51' W 001°54'1211.8
2015-Apr-25 09:32N 43°41' W 001°46'1111.1
2015-Apr-25 08:33N 43°33' W 001°36'4 0.3
2015-Apr-24 18:17N 43°32' W 001°30'6 7.6
2015-Apr-24 17:30N 43°33' W 001°38'1111.5
2015-Apr-24 16:33N 43°43' W 001°44'1212.2
2015-Apr-24 15:33N 43°55' W 001°48'1212.2
2015-Apr-24 14:33N 44°07' W 001°53'5012.2
2015-Apr-24 10:27N 44°55' W 002°12'1011.7
2015-Apr-24 09:33N 45°05' W 002°16'1211.6
2015-Apr-24 08:31N 45°16' W 002°20'121 4.6
2015-Apr-23 06:03N 47°16' W 001°53'7311.1
2015-Apr-22 23:29N 47°20' W 003°40'168 7.8
2015-Apr-22 02:05N 50°02' W 002°36'1114.7
2015-Apr-22 01:19N 50°05' W 002°19'1113.3
2015-Apr-22 00:30N 50°09' W 002°02'7111.4
2015-Apr-21 18:14N 50°29' W 000°15'1515.1
2015-Apr-21 17:15N 50°33' E 000°07'1115.1
2015-Apr-21 16:33N 50°36' E 000°23'1414.5
2015-Apr-21 15:34N 50°41' E 000°44'1313.2
2015-Apr-21 14:33N 50°48' E 001°01'1411.6
2015-Apr-21 13:22N 50°56' E 001°19'911.3
2015-Apr-21 12:33N 51°03' E 001°29'1312.9
2015-Apr-21 11:33N 51°12' E 001°44'1515.2
2015-Apr-21 10:33N 51°25' E 001°57'1615.6
2015-Apr-21 09:33N 51°36' E 002°14'1515.3
2015-Apr-21 08:33N 51°48' E 002°30'1414.2
2015-Apr-21 07:33N 51°59' E 002°44'1313.0
2015-Apr-21 06:33N 52°10' E 002°57'1312.2
2015-Apr-21 05:30N 52°20' E 003°09'1211.7
2015-Apr-21 04:29N 52°30' E 003°21'1111.4
2015-Apr-21 03:31N 52°38' E 003°31'3113.0
2015-Apr-21 01:09N 53°01' E 004°06'914.7
2015-Apr-21 00:31N 53°07' E 004°18'1414.1
2015-Apr-20 23:33N 53°19' E 004°30'1313.1
2015-Apr-20 22:31N 53°30' E 004°42'1212.6
2015-Apr-20 21:33N 53°34' E 005°01'1211.9
2015-Apr-20 20:33N 53°37' E 005°20'1211.6
2015-Apr-20 19:34N 53°41' E 005°39'1211.9
2015-Apr-20 18:32N 53°44' E 005°59'1313.2
2015-Apr-20 17:33N 53°49' E 006°19'1414.2
2015-Apr-20 16:33N 53°53' E 006°42'1414.4
2015-Apr-20 15:33N 53°57' E 007°06'1414.0
2015-Apr-20 14:33N 54°00' E 007°29'1313.4
2015-Apr-20 13:33N 54°01' E 007°52'1212.2
2015-Apr-20 12:33N 54°00' E 008°12'1111.4
2015-Apr-20 11:33N 53°58' E 008°32'10 9.6
2015-Apr-20 10:33N 53°52' E 008°44'1110.7
2015-Apr-20 09:33N 53°52' E 009°02'1312.5
2015-Apr-20 08:33N 53°48' E 009°22'1514.7
2015-Apr-20 07:33N 53°36' E 009°36'1313.0
2015-Apr-20 06:33N 53°32' E 009°56'1 1.1
2015-Apr-20 05:34N 53°31' E 009°57'0 0.0
2015-Apr-20 04:33N 53°31' E 009°57'0 0.0
2015-Apr-20 03:33N 53°31' E 009°57'0 0.0
2015-Apr-20 02:33N 53°31' E 009°57'0 0.0
2015-Apr-20 01:33N 53°31' E 009°57'0 0.0
2015-Apr-20 00:33N 53°31' E 009°57'0 0.0
2015-Apr-19 23:34N 53°31' E 009°57'0 0.0
2015-Apr-19 22:33N 53°31' E 009°57'0 0.0
2015-Apr-19 21:33N 53°31' E 009°57'0 0.0
2015-Apr-19 20:33N 53°31' E 009°57'0 0.0
2015-Apr-19 19:33N 53°31' E 009°57'0 0.0
2015-Apr-19 18:33N 53°31' E 009°57'0 0.0
2015-Apr-19 17:34N 53°31' E 009°57'0 0.0
2015-Apr-19 16:33N 53°31' E 009°57'0 0.0
2015-Apr-19 15:33N 53°31' E 009°57'0 0.0
2015-Apr-19 14:34N 53°31' E 009°57'0 0.0
2015-Apr-19 13:34N 53°31' E 009°57'0 0.0
2015-Apr-19 12:34N 53°31' E 009°57'0 0.0
2015-Apr-19 11:34N 53°31' E 009°57'0 0.0
2015-Apr-19 10:34N 53°31' E 009°57'2 1.5
2015-Apr-19 09:32N 53°32' E 009°57'0 0.2
2015-Apr-19 08:32N 53°32' E 009°57'0 0.0
2015-Apr-19 07:32N 53°32' E 009°57'0 0.0
2015-Apr-19 06:32N 53°32' E 009°57'0 0.0
2015-Apr-19 05:32N 53°32' E 009°57'0 0.0
2015-Apr-19 04:21N 53°32' E 009°57'0 0.0
2015-Apr-19 03:27N 53°32' E 009°57'0 0.0
2015-Apr-19 02:33N 53°32' E 009°57'0 0.0
2015-Apr-19 01:33N 53°32' E 009°57'0 0.0
2015-Apr-19 00:26N 53°32' E 009°57'0 0.0
2015-Apr-18 23:32N 53°32' E 009°57'0 0.0
2015-Apr-18 22:32N 53°32' E 009°57'0 0.0
2015-Apr-18 21:32N 53°32' E 009°57'0 0.0
2015-Apr-18 20:32N 53°32' E 009°57'0 0.0
2015-Apr-18 19:32N 53°32' E 009°57'0 0.0
2015-Apr-18 18:32N 53°32' E 009°57'0 0.0
2015-Apr-18 17:23N 53°32' E 009°57'0 0.0
2015-Apr-18 16:32N 53°32' E 009°57'0 0.0
2015-Apr-18 15:32N 53°32' E 009°57'0 0.0
2015-Apr-18 14:32N 53°32' E 009°57'0 0.0
2015-Apr-18 13:32N 53°32' E 009°57'0 0.0
2015-Apr-18 12:32N 53°32' E 009°57'0 0.0
2015-Apr-18 11:32N 53°32' E 009°57'0 0.0
2015-Apr-18 10:32N 53°32' E 009°57'0 0.0
2015-Apr-18 09:32N 53°32' E 009°57'0 0.0
2015-Apr-18 08:32N 53°32' E 009°57'0 0.0
2015-Apr-18 07:32N 53°32' E 009°57'0 0.0
2015-Apr-18 06:32N 53°32' E 009°57'0 0.0
2015-Apr-18 05:32N 53°32' E 009°57'0 0.0
2015-Apr-18 04:19N 53°32' E 009°57'0 0.0
2015-Apr-18 03:16N 53°32' E 009°57'0 0.0
2015-Apr-18 02:25N 53°32' E 009°57'0 0.0
2015-Apr-18 01:27N 53°32' E 009°57'0 0.0
2015-Apr-18 00:29N 53°32' E 009°57'2 1.7
2015-Apr-17 23:33N 53°32' E 009°55'1212.1
2015-Apr-17 22:34N 53°36' E 009°35'  
Track history (hours):
 
Tides and Currents Weather Stations Pressure Air Temp Water Temp Dewpoint Dewpoint Depression Visibility Wind Speed Wind Dir Waves Ship Positions

Bitflower

Last reported at 2015-Apr-27 22:06 UTC. Time now 2015-Apr-28 00:33 UTC.
Position N 51°35' E 002°22'.

Length 116 m; draft 4.8 m.

Type: Ship. MMSI: 266009000.

Date/timePositionNaut miles runAvg speedWind from/ knotsBaromVisibWave heightAir tempDewpointWater temp
2015-Apr-27 22:06N 51°35' E 002°22'713.2
2015-Apr-27 21:33N 51°29' E 002°16'1312.9
2015-Apr-27 20:33N 51°17' E 002°06'1211.8
2015-Apr-27 19:32N 51°09' E 001°51'1312.8
2015-Apr-27 18:32N 51°01' E 001°36'1212.1
2015-Apr-27 17:32N 50°51' E 001°25'28310.9
2015-Apr-26 15:33N 48°43' W 005°06'28810.9
2015-Apr-25 13:17N 44°20' W 002°17'911.9
2015-Apr-25 12:33N 44°12' W 002°11'1212.1
2015-Apr-25 11:33N 44°02' W 002°03'1212.1
2015-Apr-25 10:33N 43°51' W 001°54'1211.8
2015-Apr-25 09:32N 43°41' W 001°46'1111.1
2015-Apr-25 08:33N 43°33' W 001°36'4 0.3
2015-Apr-24 18:17N 43°32' W 001°30'6 7.6
2015-Apr-24 17:30N 43°33' W 001°38'1111.5
2015-Apr-24 16:33N 43°43' W 001°44'1212.2
2015-Apr-24 15:33N 43°55' W 001°48'1212.2
2015-Apr-24 14:33N 44°07' W 001°53'5012.2
2015-Apr-24 10:27N 44°55' W 002°12'1011.7
2015-Apr-24 09:33N 45°05' W 002°16'1211.6
2015-Apr-24 08:31N 45°16' W 002°20'121 4.6
2015-Apr-23 06:03N 47°16' W 001°53'7311.1
2015-Apr-22 23:29N 47°20' W 003°40'168 7.8
2015-Apr-22 02:05N 50°02' W 002°36'1114.7
2015-Apr-22 01:19N 50°05' W 002°19'1113.3
2015-Apr-22 00:30N 50°09' W 002°02'7111.4
2015-Apr-21 18:14N 50°29' W 000°15'1515.1
2015-Apr-21 17:15N 50°33' E 000°07'1115.1
2015-Apr-21 16:33N 50°36' E 000°23'1414.5
2015-Apr-21 15:34N 50°41' E 000°44'1313.2
2015-Apr-21 14:33N 50°48' E 001°01'1411.6
2015-Apr-21 13:22N 50°56' E 001°19'911.3
2015-Apr-21 12:33N 51°03' E 001°29'1312.9
2015-Apr-21 11:33N 51°12' E 001°44'1515.2
2015-Apr-21 10:33N 51°25' E 001°57'1615.6
2015-Apr-21 09:33N 51°36' E 002°14'1515.3
2015-Apr-21 08:33N 51°48' E 002°30'1414.2
2015-Apr-21 07:33N 51°59' E 002°44'1313.0
2015-Apr-21 06:33N 52°10' E 002°57'1312.2
2015-Apr-21 05:30N 52°20' E 003°09'1211.7
2015-Apr-21 04:29N 52°30' E 003°21'1111.4
2015-Apr-21 03:31N 52°38' E 003°31'3113.0
2015-Apr-21 01:09N 53°01' E 004°06'914.7
2015-Apr-21 00:31N 53°07' E 004°18'1414.1
2015-Apr-20 23:33N 53°19' E 004°30'1313.1
2015-Apr-20 22:31N 53°30' E 004°42'1212.6
2015-Apr-20 21:33N 53°34' E 005°01'1211.9
2015-Apr-20 20:33N 53°37' E 005°20'1211.6
2015-Apr-20 19:34N 53°41' E 005°39'1211.9
2015-Apr-20 18:32N 53°44' E 005°59'1313.2
2015-Apr-20 17:33N 53°49' E 006°19'1414.2
2015-Apr-20 16:33N 53°53' E 006°42'1414.4
2015-Apr-20 15:33N 53°57' E 007°06'1414.0
2015-Apr-20 14:33N 54°00' E 007°29'1313.4
2015-Apr-20 13:33N 54°01' E 007°52'1212.2
2015-Apr-20 12:33N 54°00' E 008°12'1111.4
2015-Apr-20 11:33N 53°58' E 008°32'10 9.6
2015-Apr-20 10:33N 53°52' E 008°44'1110.7
2015-Apr-20 09:33N 53°52' E 009°02'1312.5
2015-Apr-20 08:33N 53°48' E 009°22'1514.7
2015-Apr-20 07:33N 53°36' E 009°36'1313.0
2015-Apr-20 06:33N 53°32' E 009°56'1 1.1
2015-Apr-20 05:34N 53°31' E 009°57'0 0.0
2015-Apr-20 04:33N 53°31' E 009°57'0 0.0
2015-Apr-20 03:33N 53°31' E 009°57'0 0.0
2015-Apr-20 02:33N 53°31' E 009°57'0 0.0
2015-Apr-20 01:33N 53°31' E 009°57'0 0.0
2015-Apr-20 00:33N 53°31' E 009°57'0 0.0
2015-Apr-19 23:34N 53°31' E 009°57'0 0.0
2015-Apr-19 22:33N 53°31' E 009°57'0 0.0
2015-Apr-19 21:33N 53°31' E 009°57'0 0.0
2015-Apr-19 20:33N 53°31' E 009°57'0 0.0
2015-Apr-19 19:33N 53°31' E 009°57'0 0.0
2015-Apr-19 18:33N 53°31' E 009°57'0 0.0
2015-Apr-19 17:34N 53°31' E 009°57'0 0.0
2015-Apr-19 16:33N 53°31' E 009°57'0 0.0
2015-Apr-19 15:33N 53°31' E 009°57'0 0.0
2015-Apr-19 14:34N 53°31' E 009°57'0 0.0
2015-Apr-19 13:34N 53°31' E 009°57'0 0.0
2015-Apr-19 12:34N 53°31' E 009°57'0 0.0
2015-Apr-19 11:34N 53°31' E 009°57'0 0.0
2015-Apr-19 10:34N 53°31' E 009°57'2 1.5
2015-Apr-19 09:32N 53°32' E 009°57'0 0.2
2015-Apr-19 08:32N 53°32' E 009°57'0 0.0
2015-Apr-19 07:32N 53°32' E 009°57'0 0.0
2015-Apr-19 06:32N 53°32' E 009°57'0 0.0
2015-Apr-19 05:32N 53°32' E 009°57'0 0.0
2015-Apr-19 04:21N 53°32' E 009°57'0 0.0
2015-Apr-19 03:27N 53°32' E 009°57'0 0.0
2015-Apr-19 02:33N 53°32' E 009°57'0 0.0
2015-Apr-19 01:33N 53°32' E 009°57'0 0.0
2015-Apr-19 00:26N 53°32' E 009°57'0 0.0
2015-Apr-18 23:32N 53°32' E 009°57'0 0.0
2015-Apr-18 22:32N 53°32' E 009°57'0 0.0
2015-Apr-18 21:32N 53°32' E 009°57'0 0.0
2015-Apr-18 20:32N 53°32' E 009°57'0 0.0
2015-Apr-18 19:32N 53°32' E 009°57'0 0.0
2015-Apr-18 18:32N 53°32' E 009°57'0 0.0
2015-Apr-18 17:23N 53°32' E 009°57'0 0.0
2015-Apr-18 16:32N 53°32' E 009°57'0 0.0
2015-Apr-18 15:32N 53°32' E 009°57'0 0.0
2015-Apr-18 14:32N 53°32' E 009°57'0 0.0
2015-Apr-18 13:32N 53°32' E 009°57'0 0.0
2015-Apr-18 12:32N 53°32' E 009°57'0 0.0
2015-Apr-18 11:32N 53°32' E 009°57'0 0.0
2015-Apr-18 10:32N 53°32' E 009°57'0 0.0
2015-Apr-18 09:32N 53°32' E 009°57'0 0.0
2015-Apr-18 08:32N 53°32' E 009°57'0 0.0
2015-Apr-18 07:32N 53°32' E 009°57'0 0.0
2015-Apr-18 06:32N 53°32' E 009°57'0 0.0
2015-Apr-18 05:32N 53°32' E 009°57'0 0.0
2015-Apr-18 04:19N 53°32' E 009°57'0 0.0
2015-Apr-18 03:16N 53°32' E 009°57'0 0.0
2015-Apr-18 02:25N 53°32' E 009°57'0 0.0
2015-Apr-18 01:27N 53°32' E 009°57'0 0.0
2015-Apr-18 00:29N 53°32' E 009°57'2 1.7
2015-Apr-17 23:33N 53°32' E 009°55'1212.1
2015-Apr-17 22:34N 53°36' E 009°35'  

Dump ship's entire track history